Date,TemperatureHighF,TemperatureAvgF,TemperatureLowF,DewpointHighF,DewpointAvgF,DewpointLowF,HumidityHigh,HumidityAvg,HumidityLow,PressureMaxIn,PressureMinIn,WindSpeedMaxMPH,WindSpeedAvgMPH,GustSpeedMaxMPH,PrecipitationSumIn
2013-2-1,71.3,56.2,44.7,46.1,38.4,33.8,81,54,30,30.31,30.21,15,3,18,0.00
2013-2-2,74.7,59.3,47.0,55.7,45.4,34.5,87,63,36,30.27,30.11,14,2,15,0.00
2013-2-3,74.4,60.4,51.0,56.1,47.2,34.5,91,66,25,30.20,30.08,12,2,16,0.00
2013-2-4,71.2,58.2,47.4,53.1,45.4,19.3,95,69,15,30.14,30.02,8,0,11,0.00
2013-2-5,76.6,63.8,52.7,61.0,53.8,44.9,91,71,49,30.07,29.99,8,1,11,0.00
2013-2-6,79.0,68.2,58.1,65.9,61.2,55.7,93,80,56,30.10,30.01,9,1,13,0.00
2013-2-7,78.5,70.4,62.3,68.0,64.9,60.8,96,83,64,30.06,29.92,12,1,17,0.00
2013-2-8,81.5,71.1,61.6,69.9,64.5,55.9,95,82,43,30.05,29.89,14,3,17,0.01
2013-2-9,80.1,66.1,55.8,64.2,58.9,54.4,96,79,52,30.15,30.04,12,2,18,0.00
2013-2-10,82.6,71.0,64.5,66.4,62.2,59.0,87,75,51,30.21,30.12,13,2,16,0.00
2013-2-11,80.7,71.1,64.6,69.9,65.3,61.8,92,82,67,30.18,30.07,11,1,21,0.00
2013-2-12,80.0,72.5,66.7,72.7,68.7,64.6,95,88,75,30.10,29.95,12,1,18,0.00
2013-2-13,80.9,73.7,64.7,74.8,71.2,58.7,97,92,79,29.99,29.89,14,2,18,0.01
2013-2-14,72.5,63.2,59.8,70.1,60.5,57.3,97,91,76,30.02,29.88,17,3,21,1.78
2013-2-15,69.2,63.4,59.5,62.9,60.3,57.6,97,90,77,30.05,29.94,4,0,10,0.08
2013-2-16,68.8,61.7,57.6,60.8,53.1,41.9,91,74,54,30.10,29.91,21,6,32,0.00
2013-2-17,59.8,51.3,42.3,44.6,31.5,23.4,65,48,30,30.32,30.09,19,5,21,0.00
2013-2-18,71.4,55.5,40.5,51.0,41.2,27.9,77,60,43,30.32,30.19,13,2,18,0.00
2013-2-19,77.9,65.4,52.8,65.7,58.1,50.0,93,78,61,30.20,30.08,10,1,14,0.00
2013-2-20,79.7,67.1,58.2,68.0,60.8,57.4,98,82,50,30.10,29.99,9,1,11,0.00
2013-2-21,80.5,70.1,61.8,69.1,64.6,60.0,97,84,62,30.08,29.98,8,1,12,0.00
2013-2-22,81.4,72.0,64.8,72.5,67.9,63.4,97,87,72,30.07,29.98,11,1,16,0.00
2013-2-23,81.8,73.6,68.3,75.0,70.5,66.7,97,91,77,30.02,29.91,16,2,18,0.00
2013-2-24,82.4,73.5,68.4,74.6,70.7,67.8,98,91,77,29.98,29.89,10,1,14,0.00
2013-2-25,81.6,73.7,66.9,75.8,70.8,66.0,98,91,81,29.91,29.78,12,1,16,0.01
2013-2-26,80.8,73.8,66.6,74.4,70.8,64.8,95,91,80,29.89,29.74,16,4,26,0.09
2013-2-27,74.3,68.1,63.9,66.5,62.8,59.8,96,84,69,29.97,29.85,8,1,11,0.00
2013-2-28,72.4,64.7,59.8,60.1,57.3,55.5,89,77,58,30.02,29.91,15,2,18,0.00